Time,TemperatureF,DewpointF,PressureIn,WindDirection,WindDirectionDegrees,WindSpeedMPH,WindSpeedGustMPH,Humidity,HourlyPrecipIn,Conditions,Clouds,dailyrainin,SoftwareType,DateUTC
2013-03-11 00:02:00,29.0,27.0,-100.00,ENE,76,1.0,2.0,92,0.04,,,-99.99,,2013-03-11 06:02:00,
2013-03-11 00:11:00,29.0,27.0,-100.00,ENE,76,1.0,2.0,92,0.04,,,-99.99,,2013-03-11 06:11:00,
2013-03-11 00:22:00,29.0,27.0,-100.00,NE,47,4.0,5.0,91,0.00,,,-99.99,,2013-03-11 06:22:00,
2013-03-11 00:32:00,29.0,27.0,-100.00,NE,47,4.0,5.0,91,0.00,,,-99.99,,2013-03-11 06:32:00,
2013-03-11 00:42:00,29.0,27.0,-100.00,South,175,3.0,6.0,93,0.00,,,-99.99,,2013-03-11 06:42:00,
2013-03-11 00:53:00,30.0,28.0,-100.00,WSW,256,2.0,4.0,92,0.00,,,-99.99,,2013-03-11 06:53:00,
2013-03-11 01:02:00,30.0,28.0,-100.00,WSW,256,2.0,4.0,92,0.00,,,-99.99,,2013-03-11 07:02:00,
2013-03-11 01:12:00,30.0,28.0,-100.00,WSW,256,2.0,4.0,92,0.00,,,-99.99,,2013-03-11 07:12:00,
2013-03-11 01:21:00,29.0,28.0,-100.00,SSE,158,1.0,4.0,93,0.00,,,-99.99,,2013-03-11 07:21:00,
2013-03-11 01:32:00,29.0,28.0,-100.00,SSE,158,1.0,4.0,93,0.00,,,-99.99,,2013-03-11 07:32:00,
2013-03-11 01:42:00,29.0,28.0,-100.00,SE,133,3.0,7.0,96,0.04,,,-99.99,,2013-03-11 07:42:00,
2013-03-11 01:52:00,29.0,28.0,-100.00,SE,144,3.0,5.0,96,0.04,,,-99.99,,2013-03-11 07:52:00,
2013-03-11 02:02:00,29.0,28.0,-100.00,SE,144,3.0,5.0,96,0.04,,,-99.99,,2013-03-11 08:02:00,
2013-03-11 02:12:00,29.0,28.0,-100.00,SSE,158,3.0,5.0,98,0.04,,,-99.99,,2013-03-11 08:12:00,
2013-03-11 02:22:00,29.0,28.0,-100.00,ESE,109,2.0,4.0,96,0.00,,,-99.99,,2013-03-11 08:22:00,
2013-03-11 02:32:00,29.0,28.0,-100.00,ESE,109,2.0,4.0,96,0.00,,,-99.99,,2013-03-11 08:32:00,
2013-03-11 02:42:00,29.0,29.0,-100.00,SE,131,2.0,4.0,98,0.00,,,-99.99,,2013-03-11 08:42:00,
2013-03-11 02:52:00,29.0,29.0,-100.00,SE,137,5.0,6.0,99,0.04,,,-99.99,,2013-03-11 08:52:00,
2013-03-11 03:02:00,29.0,29.0,-100.00,SE,137,5.0,6.0,99,0.04,,,-99.99,,2013-03-11 09:02:00,
2013-03-11 03:12:00,29.0,29.0,-100.00,SE,141,4.0,6.0,100,0.00,,,-99.99,,2013-03-11 09:12:00,
2013-03-11 03:22:00,29.0,29.0,-100.00,SE,141,4.0,6.0,100,0.00,,,-99.99,,2013-03-11 09:22:00,
2013-03-11 03:32:00,29.0,29.0,-100.00,SE,141,4.0,6.0,100,0.00,,,-99.99,,2013-03-11 09:32:00,
2013-03-11 03:42:00,29.0,29.0,-100.00,SSE,158,2.0,4.0,100,0.00,,,-99.99,,2013-03-11 09:42:00,
2013-03-11 03:52:00,29.0,29.0,-100.00,SSE,158,2.0,4.0,100,0.00,,,-99.99,,2013-03-11 09:52:00,
2013-03-11 04:02:00,29.0,29.0,-100.00,SSE,158,2.0,4.0,100,0.00,,,-99.99,,2013-03-11 10:02:00,
2013-03-11 04:12:00,28.0,28.0,-100.00,SSE,165,1.0,2.0,100,0.00,,,-99.99,,2013-03-11 10:12:00,
2013-03-11 04:22:00,28.0,28.0,-100.00,SSE,165,1.0,2.0,100,0.00,,,-99.99,,2013-03-11 10:22:00,
2013-03-11 04:32:00,28.0,28.0,-100.00,SSE,165,1.0,2.0,100,0.00,,,-99.99,,2013-03-11 10:32:00,
2013-03-11 04:41:00,28.0,28.0,-100.00,ESE,112,2.0,3.0,100,0.04,,,-99.99,,2013-03-11 10:41:00,
2013-03-11 04:52:00,28.0,28.0,-100.00,ESE,112,2.0,3.0,100,0.04,,,-99.99,,2013-03-11 10:52:00,
2013-03-11 05:02:00,28.0,28.0,-100.00,ESE,112,2.0,3.0,100,0.04,,,-99.99,,2013-03-11 11:02:00,
2013-03-11 05:11:00,28.0,28.0,-100.00,ENE,68,2.0,2.0,100,0.04,,,-99.99,,2013-03-11 11:11:00,
2013-03-11 05:22:00,28.0,28.0,-100.00,East,88,1.0,2.0,100,0.04,,,-99.99,,2013-03-11 11:22:00,
2013-03-11 05:32:00,28.0,28.0,-100.00,East,88,1.0,2.0,100,0.04,,,-99.99,,2013-03-11 11:32:00,
2013-03-11 05:42:00,28.0,28.0,-100.00,East,88,1.0,2.0,100,0.04,,,-99.99,,2013-03-11 11:42:00,
2013-03-11 05:53:00,28.0,28.0,-100.00,West,280,2.0,5.0,100,0.08,,,-99.99,,2013-03-11 11:53:00,
2013-03-11 06:02:00,28.0,28.0,-100.00,West,280,2.0,5.0,100,0.08,,,-99.99,,2013-03-11 12:02:00,
2013-03-11 06:12:00,29.0,27.0,-100.00,West,272,6.0,17.0,94,0.00,,,-99.99,,2013-03-11 12:12:00,
2013-03-11 06:22:00,28.0,26.0,-100.00,WNW,292,8.0,17.0,90,0.00,,,-99.99,,2013-03-11 12:22:00,
2013-03-11 06:32:00,28.0,26.0,-100.00,WNW,292,8.0,17.0,90,0.00,,,-99.99,,2013-03-11 12:32:00,
2013-03-11 06:42:00,28.0,25.0,-100.00,West,270,5.0,8.0,91,0.00,,,-99.99,,2013-03-11 12:42:00,
2013-03-11 06:53:00,28.0,25.0,-100.00,WNW,301,2.0,5.0,88,0.00,,,-99.99,,2013-03-11 12:53:00,
2013-03-11 07:02:00,28.0,25.0,-100.00,WNW,301,2.0,5.0,88,0.00,,,-99.99,,2013-03-11 13:02:00,
2013-03-11 07:12:00,28.0,25.0,-100.00,WNW,301,2.0,5.0,88,0.00,,,-99.99,,2013-03-11 13:12:00,
2013-03-11 07:22:00,28.0,26.0,-100.00,WSW,244,1.0,5.0,91,0.00,,,-99.99,,2013-03-11 13:22:00,
2013-03-11 07:32:00,28.0,26.0,-100.00,WSW,244,1.0,5.0,91,0.00,,,-99.99,,2013-03-11 13:32:00,
2013-03-11 07:42:00,28.0,27.0,-100.00,SW,233,4.0,6.0,96,0.08,,,-99.99,,2013-03-11 13:42:00,
2013-03-11 07:52:00,27.0,27.0,-100.00,NW,315,5.0,8.0,97,0.04,,,-99.99,,2013-03-11 13:52:00,
2013-03-11 08:02:00,27.0,27.0,-100.00,NW,315,5.0,8.0,97,0.04,,,-99.99,,2013-03-11 14:02:00,
2013-03-11 08:12:00,27.0,27.0,-100.00,NW,315,5.0,8.0,97,0.04,,,-99.99,,2013-03-11 14:12:00,
2013-03-11 08:22:00,27.0,27.0,-100.00,West,281,1.0,3.0,98,0.00,,,-99.99,,2013-03-11 14:22:00,
2013-03-11 08:32:00,27.0,27.0,-100.00,West,281,1.0,3.0,98,0.00,,,-99.99,,2013-03-11 14:32:00,
2013-03-11 08:42:00,27.0,24.0,-100.00,WNW,287,6.0,13.0,88,0.04,,,-99.99,,2013-03-11 14:42:00,
2013-03-11 08:53:00,26.0,22.0,-100.00,West,272,6.0,9.0,83,0.00,,,-99.99,,2013-03-11 14:53:00,
2013-03-11 09:02:00,26.0,22.0,-100.00,West,272,6.0,9.0,83,0.00,,,-99.99,,2013-03-11 15:02:00,
2013-03-11 09:12:00,27.0,22.0,-100.00,NW,313,6.0,9.0,83,0.00,,,-99.99,,2013-03-11 15:12:00,
2013-03-11 09:22:00,27.0,22.0,-100.00,NW,313,6.0,9.0,83,0.00,,,-99.99,,2013-03-11 15:22:00,
2013-03-11 09:32:00,27.0,22.0,-100.00,NW,313,6.0,9.0,83,0.00,,,-99.99,,2013-03-11 15:32:00,
2013-03-11 09:42:00,27.0,25.0,-100.00,NNW,337,4.0,6.0,92,0.00,,,-99.99,,2013-03-11 15:42:00,
2013-03-11 09:53:00,27.0,25.0,-100.00,NNW,337,4.0,6.0,92,0.00,,,-99.99,,2013-03-11 15:53:00,
2013-03-11 10:02:00,27.0,25.0,-100.00,NNW,337,4.0,6.0,92,0.00,,,-99.99,,2013-03-11 16:02:00,
2013-03-11 10:12:00,29.0,25.0,-100.00,ESE,116,3.0,4.0,84,0.00,,,-99.99,,2013-03-11 16:12:00,
2013-03-11 10:22:00,32.0,22.0,-100.00,SW,222,3.0,6.0,67,0.00,,,-99.99,,2013-03-11 16:22:00,
2013-03-11 10:32:00,32.0,22.0,-100.00,SW,222,3.0,6.0,67,0.00,,,-99.99,,2013-03-11 16:32:00,
2013-03-11 10:42:00,32.0,22.0,-100.00,South,169,3.0,5.0,66,0.00,,,-99.99,,2013-03-11 16:42:00,
2013-03-11 10:52:00,31.0,21.0,-100.00,WSW,248,3.0,6.0,67,0.00,,,-99.99,,2013-03-11 16:52:00,
2013-03-11 11:02:00,31.0,21.0,-100.00,WSW,248,3.0,6.0,67,0.00,,,-99.99,,2013-03-11 17:02:00,
2013-03-11 11:13:00,31.0,21.0,-100.00,WSW,248,3.0,6.0,67,0.00,,,-99.99,,2013-03-11 17:13:00,
2013-03-11 11:24:00,31.0,23.0,-100.00,SW,233,2.0,5.0,73,0.00,,,-99.99,,2013-03-11 17:24:00,
2013-03-11 11:33:00,31.0,23.0,-100.00,SW,233,2.0,5.0,73,0.00,,,-99.99,,2013-03-11 17:33:00,
2013-03-11 11:42:00,30.0,22.0,-100.00,SW,216,5.0,9.0,70,0.00,,,-99.99,,2013-03-11 17:42:00,
2013-03-11 11:53:00,30.0,22.0,-100.00,SW,216,5.0,9.0,70,0.00,,,-99.99,,2013-03-11 17:53:00,
2013-03-11 12:02:00,30.0,22.0,-100.00,SW,216,5.0,9.0,70,0.00,,,-99.99,,2013-03-11 18:02:00,
2013-03-11 12:11:00,32.0,21.0,-100.00,SSE,152,4.0,7.0,63,0.00,,,-99.99,,2013-03-11 18:11:00,
2013-03-11 12:22:00,32.0,20.0,-100.00,West,280,4.0,8.0,61,0.00,,,-99.99,,2013-03-11 18:22:00,
2013-03-11 12:32:00,32.0,20.0,-100.00,West,280,4.0,8.0,61,0.00,,,-99.99,,2013-03-11 18:32:00,
2013-03-11 12:42:00,32.0,17.0,-100.00,WSW,246,5.0,8.0,52,0.00,,,-99.99,,2013-03-11 18:42:00,
2013-03-11 12:53:00,30.0,15.0,-100.00,West,280,6.0,13.0,53,0.00,,,-99.99,,2013-03-11 18:53:00,
2013-03-11 13:02:00,30.0,15.0,-100.00,West,280,6.0,13.0,53,0.00,,,-99.99,,2013-03-11 19:02:00,
2013-03-11 13:12:00,33.0,18.0,-100.00,NW,320,7.0,11.0,54,0.00,,,-99.99,,2013-03-11 19:12:00,
2013-03-11 13:22:00,33.0,18.0,-100.00,NW,320,7.0,11.0,54,0.00,,,-99.99,,2013-03-11 19:22:00,
2013-03-11 13:32:00,33.0,18.0,-100.00,NW,320,7.0,11.0,54,0.00,,,-99.99,,2013-03-11 19:32:00,
2013-03-11 13:42:00,34.0,17.0,-100.00,West,280,4.0,9.0,49,0.00,,,-99.99,,2013-03-11 19:42:00,
2013-03-11 13:52:00,34.0,17.0,-100.00,West,280,4.0,9.0,49,0.00,,,-99.99,,2013-03-11 19:52:00,
2013-03-11 14:02:00,34.0,17.0,-100.00,West,280,4.0,9.0,49,0.00,,,-99.99,,2013-03-11 20:02:00,
2013-03-11 14:11:00,35.0,13.0,-100.00,SE,127,3.0,5.0,41,0.00,,,-99.99,,2013-03-11 20:11:00,
2013-03-11 14:22:00,35.0,13.0,-100.00,SE,127,3.0,5.0,41,0.00,,,-99.99,,2013-03-11 20:22:00,
2013-03-11 14:32:00,35.0,13.0,-100.00,SE,127,3.0,5.0,41,0.00,,,-99.99,,2013-03-11 20:32:00,
2013-03-11 14:42:00,33.0,9.0,-100.00,NW,326,10.0,15.0,36,0.00,,,-99.99,,2013-03-11 20:42:00,
2013-03-11 14:53:00,33.0,9.0,-100.00,NW,326,10.0,15.0,36,0.00,,,-99.99,,2013-03-11 20:53:00,
2013-03-11 15:02:00,33.0,9.0,-100.00,NW,326,10.0,15.0,36,0.00,,,-99.99,,2013-03-11 21:02:00,
2013-03-11 15:12:00,34.0,13.0,-100.00,NW,322,5.0,9.0,41,0.00,,,-99.99,,2013-03-11 21:12:00,
2013-03-11 15:22:00,34.0,13.0,-100.00,NW,322,5.0,9.0,41,0.00,,,-99.99,,2013-03-11 21:22:00,
2013-03-11 15:32:00,34.0,13.0,-100.00,NW,322,5.0,9.0,41,0.00,,,-99.99,,2013-03-11 21:32:00,
2013-03-11 15:43:00,35.0,9.0,-100.00,WSW,257,6.0,8.0,33,0.00,,,-99.99,,2013-03-11 21:43:00,
2013-03-11 15:53:00,33.0,9.0,-100.00,NW,313,8.0,13.0,35,0.00,,,-99.99,,2013-03-11 21:53:00,
2013-03-11 16:02:00,33.0,9.0,-100.00,NW,313,8.0,13.0,35,0.00,,,-99.99,,2013-03-11 22:02:00,
2013-03-11 16:12:00,35.0,9.0,-100.00,WNW,289,12.0,20.0,34,0.00,,,-99.99,,2013-03-11 22:12:00,
2013-03-11 16:22:00,35.0,9.0,-100.00,WNW,289,12.0,20.0,34,0.00,,,-99.99,,2013-03-11 22:22:00,
2013-03-11 16:32:00,35.0,9.0,-100.00,WNW,289,12.0,20.0,34,0.00,,,-99.99,,2013-03-11 22:32:00,
2013-03-11 16:43:00,33.0,10.0,-100.00,NW,325,15.0,19.0,37,0.00,,,-99.99,,2013-03-11 22:43:00,
2013-03-11 16:53:00,35.0,9.0,-100.00,NW,315,8.0,11.0,34,0.00,,,-99.99,,2013-03-11 22:53:00,
2013-03-11 17:02:00,35.0,9.0,-100.00,NW,315,8.0,11.0,34,0.00,,,-99.99,,2013-03-11 23:02:00,
2013-03-11 17:12:00,34.0,9.0,-100.00,NW,318,13.0,19.0,35,0.00,,,-99.99,,2013-03-11 23:12:00,
2013-03-11 17:22:00,34.0,9.0,-100.00,NW,318,13.0,19.0,35,0.00,,,-99.99,,2013-03-11 23:22:00,
2013-03-11 17:30:00,31.0,12.0,-100.00,WNW,294,6.0,13.0,44,0.00,,,-99.99,,2013-03-11 23:30:00,
2013-03-11 17:32:00,34.0,9.0,-100.00,NW,318,13.0,19.0,35,0.00,,,-99.99,,2013-03-11 23:32:00,
2013-03-11 17:42:00,34.0,9.0,-100.00,NW,318,13.0,19.0,35,0.00,,,-99.99,,2013-03-11 23:42:00,
2013-03-11 17:53:00,31.0,12.0,-100.00,WNW,294,6.0,13.0,44,0.00,,,-99.99,,2013-03-11 23:53:00,
2013-03-11 18:02:00,31.0,12.0,-100.00,WNW,294,6.0,13.0,44,0.00,,,-99.99,,2013-03-12 00:02:00,
2013-03-11 18:12:00,31.0,12.0,-100.00,WNW,294,6.0,13.0,44,0.00,,,-99.99,,2013-03-12 00:12:00,
2013-03-11 18:22:00,31.0,12.0,-100.00,WNW,294,6.0,13.0,44,0.00,,,-99.99,,2013-03-12 00:22:00,
2013-03-11 18:43:00,31.0,11.0,-100.00,WNW,302,9.0,16.0,44,0.00,,,-99.99,,2013-03-12 00:43:00,
2013-03-11 18:53:00,30.0,13.0,-100.00,WNW,291,6.0,13.0,50,0.00,,,-99.99,,2013-03-12 00:53:00,
2013-03-11 19:02:00,30.0,13.0,-100.00,WNW,291,6.0,13.0,50,0.00,,,-99.99,,2013-03-12 01:02:00,
2013-03-11 19:12:00,30.0,13.0,-100.00,WNW,295,8.0,13.0,49,0.00,,,-99.99,,2013-03-12 01:12:00,
2013-03-11 19:22:00,30.0,13.0,-100.00,WNW,295,8.0,13.0,49,0.00,,,-99.99,,2013-03-12 01:22:00,
2013-03-11 19:32:00,30.0,13.0,-100.00,WNW,295,8.0,13.0,49,0.00,,,-99.99,,2013-03-12 01:32:00,
2013-03-11 19:42:00,30.0,13.0,-100.00,NW,311,8.0,11.0,48,0.00,,,-99.99,,2013-03-12 01:42:00,
2013-03-11 19:52:00,29.0,13.0,-100.00,NW,308,5.0,8.0,51,0.00,,,-99.99,,2013-03-12 01:52:00,
2013-03-11 20:02:00,29.0,13.0,-100.00,NW,308,5.0,8.0,51,0.00,,,-99.99,,2013-03-12 02:02:00,
2013-03-11 20:12:00,29.0,14.0,-100.00,NW,311,10.0,13.0,52,0.00,,,-99.99,,2013-03-12 02:12:00,
2013-03-11 20:22:00,29.0,14.0,-100.00,NW,311,10.0,13.0,52,0.00,,,-99.99,,2013-03-12 02:22:00,
2013-03-11 20:32:00,29.0,14.0,-100.00,NW,311,10.0,13.0,52,0.00,,,-99.99,,2013-03-12 02:32:00,
2013-03-11 20:42:00,29.0,14.0,-100.00,WNW,302,10.0,17.0,53,0.00,,,-99.99,,2013-03-12 02:42:00,
2013-03-11 20:52:00,29.0,14.0,-100.00,WNW,302,10.0,17.0,53,0.00,,,-99.99,,2013-03-12 02:52:00,
2013-03-11 21:02:00,29.0,14.0,-100.00,WNW,302,10.0,17.0,53,0.00,,,-99.99,,2013-03-12 03:02:00,
2013-03-11 21:12:00,29.0,14.0,-100.00,NW,325,12.0,15.0,53,0.00,,,-99.99,,2013-03-12 03:12:00,
2013-03-11 21:22:00,29.0,15.0,-100.00,NNW,332,12.0,15.0,55,0.00,,,-99.99,,2013-03-12 03:22:00,
2013-03-11 21:32:00,29.0,15.0,-100.00,NNW,332,12.0,15.0,55,0.00,,,-99.99,,2013-03-12 03:32:00,
2013-03-11 21:42:00,27.0,13.0,-100.00,NW,320,7.0,13.0,54,0.00,,,-99.99,,2013-03-12 03:42:00,
2013-03-11 21:52:00,27.0,12.0,-100.00,NW,313,4.0,6.0,52,0.00,,,-99.99,,2013-03-12 03:52:00,
2013-03-11 22:02:00,27.0,12.0,-100.00,NW,313,4.0,6.0,52,0.00,,,-99.99,,2013-03-12 04:02:00,
2013-03-11 22:12:00,27.0,12.0,-100.00,NW,313,4.0,6.0,52,0.00,,,-99.99,,2013-03-12 04:12:00,
2013-03-11 22:22:00,25.0,13.0,-100.00,North,359,4.0,7.0,58,0.00,,,-99.99,,2013-03-12 04:22:00,
2013-03-11 22:32:00,25.0,13.0,-100.00,North,359,4.0,7.0,58,0.00,,,-99.99,,2013-03-12 04:32:00,
2013-03-11 22:42:00,25.0,12.0,-100.00,WNW,301,2.0,3.0,57,0.00,,,-99.99,,2013-03-12 04:42:00,
2013-03-11 22:52:00,26.0,12.0,-100.00,NW,326,7.0,14.0,55,0.00,,,-99.99,,2013-03-12 04:52:00,
2013-03-11 23:02:00,26.0,12.0,-100.00,NW,326,7.0,14.0,55,0.00,,,-99.99,,2013-03-12 05:02:00,
2013-03-11 23:12:00,26.0,11.0,-100.00,NNW,336,5.0,12.0,53,0.00,,,-99.99,,2013-03-12 05:12:00,
2013-03-11 23:22:00,22.0,10.0,-100.00,West,272,1.0,3.0,59,0.00,,,-99.99,,2013-03-12 05:22:00,
2013-03-11 23:32:00,22.0,10.0,-100.00,West,272,1.0,3.0,59,0.00,,,-99.99,,2013-03-12 05:32:00,
2013-03-11 23:42:00,21.0,12.0,-100.00,West,271,2.0,6.0,67,0.00,,,-99.99,,2013-03-12 05:42:00,
2013-03-11 23:52:00,19.0,11.0,-100.00,WSW,250,2.0,2.0,71,0.00,,,-99.99,,2013-03-12 05:52:00,